Time;durP1;ratioP1;P1;durP2;ratioP2;P2;SDS_P1;SDS_P2;PMS_P1;PMS_P2;Temp;Humidity;BMP_temperature;BMP_pressure;BME280_temperature;BME280_humidity;BME280_pressure;Samples;Min_cycle;Max_cycle;Signal;HPM_P1;HPM_P2
2023/02/25 00:01:57;;;;;;;3.47;1.73;;;;;;;4.11;100.00;101451.78;4996548;28;20038;-81
2023/02/25 00:04:26;;;;;;;12.88;2.22;;;;;;;3.95;100.00;101442.31;4996018;28;20384;-81
2023/02/25 00:06:52;;;;;;;4.93;1.63;;;;;;;4.00;100.00;101462.41;4996467;28;20034;-81
2023/02/25 00:09:21;;;;;;;9.23;3.10;;;;;;;3.78;100.00;101460.50;4996254;28;20030;-81
2023/02/25 00:11:46;;;;;;;6.93;2.20;;;;;;;3.55;100.00;101470.16;4996170;28;20468;-80
2023/02/25 00:14:13;;;;;;;6.65;2.08;;;;;;;3.27;100.00;101464.22;4980175;28;20096;-81
2023/02/25 00:16:39;;;;;;;9.07;2.83;;;;;;;3.17;100.00;101455.19;4996394;28;20027;-82
2023/02/25 00:19:05;;;;;;;2.33;1.75;;;;;;;3.23;100.00;101460.94;4995946;28;20036;-81
2023/02/25 00:21:38;;;;;;;6.47;1.73;;;;;;;3.39;100.00;101467.81;4979932;28;20038;-81
2023/02/25 00:24:04;;;;;;;12.40;2.45;;;;;;;3.26;100.00;101452.75;4963654;28;20072;-81
2023/02/25 00:26:37;;;;;;;10.55;2.30;;;;;;;3.30;100.00;101467.50;4980876;28;20487;-82
2023/02/25 00:29:04;;;;;;;4.22;1.85;;;;;;;3.00;100.00;101467.91;4978756;28;20027;-81
2023/02/25 00:31:36;;;;;;;8.70;2.30;;;;;;;2.80;100.00;101447.22;4995578;28;20465;-81
2023/02/25 00:34:03;;;;;;;9.40;2.05;;;;;;;2.88;100.00;101466.09;4979599;28;20034;-81
2023/02/25 00:36:30;;;;;;;8.32;2.60;;;;;;;2.57;100.00;101460.31;4979113;28;20495;-81
2023/02/25 00:38:59;;;;;;;10.45;2.30;;;;;;;2.30;100.00;101455.13;4964469;28;20376;-81
2023/02/25 00:41:27;;;;;;;7.78;2.58;;;;;;;2.21;100.00;101447.75;4978496;28;20066;-81
2023/02/25 00:43:59;;;;;;;4.10;2.33;;;;;;;2.42;100.00;101459.56;4963407;28;20467;-81
2023/02/25 00:46:26;;;;;;;12.68;2.63;;;;;;;2.40;100.00;101453.50;4978974;28;20065;-81
2023/02/25 00:48:54;;;;;;;14.18;2.97;;;;;;;2.22;100.00;101465.38;4962134;28;20039;-80
2023/02/25 00:51:25;;;;;;;9.73;3.20;;;;;;;2.03;100.00;101478.19;4996541;28;20034;-81
2023/02/25 00:53:51;;;;;;;19.55;3.45;;;;;;;1.92;100.00;101485.06;4979715;28;20038;-81
2023/02/25 00:56:18;;;;;;;15.07;4.20;;;;;;;1.61;100.00;101462.38;4962371;28;20038;-81
2023/02/25 00:58:49;;;;;;;7.07;3.03;;;;;;;1.61;100.00;101480.06;4995280;28;20384;-80
2023/02/25 01:01:32;;;;;;;6.68;2.65;;;;;;;1.46;100.00;101474.00;4978765;28;20053;-80
2023/02/25 01:03:58;;;;;;;8.05;2.40;;;;;;;1.34;100.00;101472.13;4962809;28;20073;-82
2023/02/25 01:06:25;;;;;;;21.92;5.40;;;;;;;1.33;100.00;101481.88;4994902;28;20088;-81
2023/02/25 01:08:54;;;;;;;9.40;4.00;;;;;;;1.39;100.00;101481.47;4978167;28;20042;-80
2023/02/25 01:11:28;;;;;;;12.52;3.50;;;;;;;1.48;100.00;101477.38;4979069;28;20037;-80
2023/02/25 01:13:59;;;;;;;7.57;3.20;;;;;;;1.41;100.00;101476.09;4979327;28;20042;-80
2023/02/25 01:16:30;;;;;;;10.55;3.22;;;;;;;1.31;100.00;101457.28;4978500;28;20096;-81
2023/02/25 01:19:02;;;;;;;8.82;3.65;;;;;;;1.24;100.00;101455.94;4979143;28;20035;-81
2023/02/25 01:21:34;;;;;;;15.82;4.30;;;;;;;1.10;100.00;101460.34;4962623;28;20084;-80
2023/02/25 01:24:05;;;;;;;11.68;3.88;;;;;;;1.04;100.00;101473.13;4994740;28;20058;-80
2023/02/25 01:26:33;;;;;;;13.80;3.80;;;;;;;0.97;100.00;101474.47;4962909;28;20026;-80
2023/02/25 01:28:59;;;;;;;5.25;2.83;;;;;;;0.83;100.00;101459.44;4962541;28;20065;-80
2023/02/25 01:31:28;;;;;;;8.43;2.97;;;;;;;0.87;100.00;101472.41;4978458;28;20034;-80
2023/02/25 01:34:01;;;;;;;9.02;3.35;;;;;;;0.57;100.00;101447.81;4994582;28;20031;-81
2023/02/25 01:36:30;;;;;;;7.95;2.97;;;;;;;0.66;100.00;101473.69;4962451;28;20050;-81
2023/02/25 01:38:59;;;;;;;4.25;2.40;;;;;;;0.60;100.00;101445.81;4977838;28;20485;-80
2023/02/25 01:41:26;;;;;;;5.95;2.50;;;;;;;0.77;100.00;101447.44;4962210;28;20053;-80
2023/02/25 01:44:24;;;;;;;8.85;3.40;;;;;;;0.83;100.00;101468.22;4978695;28;20030;-81
2023/02/25 01:46:51;;;;;;;5.00;2.50;;;;;;;0.63;100.00;101471.25;4983116;28;20046;-80
2023/02/25 01:49:29;;;;;;;7.78;2.70;;;;;;;0.62;100.00;101485.44;4962070;28;20034;-80
2023/02/25 01:52:02;;;;;;;10.82;2.85;;;;;;;0.55;100.00;101474.34;4961510;28;20030;-81
2023/02/25 01:54:27;;;;;;;9.35;2.90;;;;;;;0.57;100.00;101480.41;4992858;28;20035;-80
2023/02/25 01:56:55;;;;;;;7.55;3.10;;;;;;;0.67;100.00;101486.00;4978149;28;20034;-82
2023/02/25 01:59:23;;;;;;;13.45;3.20;;;;;;;0.68;100.00;101479.75;4945543;28;20094;-80
2023/02/25 02:01:50;;;;;;;10.93;3.15;;;;;;;0.76;100.00;101484.59;4977957;28;20038;-81
2023/02/25 02:04:16;;;;;;;11.35;3.53;;;;;;;0.69;100.00;101492.06;4993453;28;20532;-82
2023/02/25 02:06:43;;;;;;;7.45;2.97;;;;;;;0.50;100.00;101494.13;4961151;28;20042;-81
2023/02/25 02:09:17;;;;;;;8.95;3.10;;;;;;;0.22;100.00;101490.50;4977552;28;20125;-80
2023/02/25 02:11:44;;;;;;;9.93;3.03;;;;;;;0.13;100.00;101477.78;4960722;28;20027;-81
2023/02/25 02:14:14;;;;;;;8.95;2.90;;;;;;;0.20;100.00;101487.91;4993975;28;20050;-80
2023/02/25 02:17:04;;;;;;;5.28;2.30;;;;;;;0.24;100.00;101493.03;4993349;28;20046;-81
2023/02/25 02:20:08;;;;;;;8.77;3.75;;;;;;;0.30;100.00;101490.88;4995207;28;20026;-81
2023/02/25 02:22:52;;;;;;;13.50;4.40;;;;;;;0.44;100.00;101487.41;4980204;28;20126;-81
2023/02/25 02:25:44;;;;;;;12.25;3.30;;;;;;;0.52;100.00;101490.44;4977386;28;20137;-81
2023/02/25 02:28:40;;;;;;;5.00;1.92;;;;;;;0.76;100.00;101481.94;4982970;28;20069;-81
2023/02/25 02:31:18;;;;;;;6.43;2.38;;;;;;;0.99;100.00;101493.75;4992760;28;20038;-81
2023/02/25 02:34:15;;;;;;;11.95;3.30;;;;;;;0.95;100.00;101495.72;4978085;28;20030;-81
2023/02/25 02:37:14;;;;;;;14.40;3.63;;;;;;;0.65;100.00;101499.31;4977289;28;20188;-82
2023/02/25 02:39:49;;;;;;;17.65;3.85;;;;;;;0.42;100.00;101495.44;4993527;28;20037;-81
2023/02/25 02:42:52;;;;;;;5.95;3.47;;;;;;;0.24;100.00;101499.19;4994688;28;20034;-81
2023/02/25 02:45:33;;;;;;;6.30;2.53;;;;;;;0.20;100.00;101495.00;4992474;28;20128;-80
2023/02/25 02:48:36;;;;;;;9.98;3.63;;;;;;;0.24;100.00;101488.59;4994624;28;20066;-81
2023/02/25 02:51:11;;;;;;;9.80;3.58;;;;;;;0.09;100.00;101471.00;4962549;28;20116;-83
2023/02/25 02:53:40;;;;;;;16.42;3.75;;;;;;;-0.02;100.00;101469.84;4960334;28;20047;-81
2023/02/25 02:56:11;;;;;;;13.43;4.18;;;;;;;-0.04;100.00;101482.28;4993281;28;20125;-81
2023/02/25 02:58:47;;;;;;;18.27;3.50;;;;;;;0.01;100.00;101503.19;4976148;28;20571;-81
2023/02/25 03:01:17;;;;;;;15.25;5.05;;;;;;;-0.22;100.00;101468.34;4961325;28;20077;-81
2023/02/25 03:03:53;;;;;;;22.13;5.78;;;;;;;-0.12;100.00;101499.53;4975939;28;20080;-82
2023/02/25 03:06:26;;;;;;;8.80;3.85;;;;;;;-0.31;100.00;101497.13;4976611;28;20034;-81
2023/02/25 03:09:03;;;;;;;7.70;2.80;;;;;;;-0.38;100.00;101490.47;4944978;28;20070;-81
2023/02/25 03:11:32;;;;;;;17.30;4.20;;;;;;;-0.44;100.00;101478.47;4976372;28;20070;-81
2023/02/25 03:13:58;;;;;;;8.32;3.45;;;;;;;-0.40;100.00;101479.97;4992969;28;20476;-81
2023/02/25 03:16:36;;;;;;;8.38;3.35;;;;;;;-0.32;100.00;101487.47;4960350;28;20044;-81
2023/02/25 03:19:17;;;;;;;8.30;2.80;;;;;;;-0.47;100.00;101487.41;4961237;28;20469;-81
2023/02/25 03:21:49;;;;;;;9.82;2.30;;;;;;;-0.46;100.00;101499.66;4976976;28;20030;-81
2023/02/25 03:24:21;;;;;;;13.15;3.40;;;;;;;-0.50;100.00;101484.94;4992525;28;20499;-81
2023/02/25 03:26:53;;;;;;;12.30;3.35;;;;;;;-0.43;100.00;101487.22;4976395;28;20047;-81
2023/02/25 03:29:25;;;;;;;7.88;3.10;;;;;;;-0.54;100.00;101478.13;4992277;28;20509;-81
2023/02/25 03:32:08;;;;;;;12.52;2.88;;;;;;;-0.73;100.00;101473.03;4977194;28;20041;-81
2023/02/25 03:34:43;;;;;;;8.52;2.63;;;;;;;-0.71;100.00;101487.00;4960607;28;20033;-81
2023/02/25 03:37:13;;;;;;;9.75;2.90;;;;;;;-0.63;100.00;101499.78;4945154;28;20033;-81
2023/02/25 03:39:48;;;;;;;7.22;3.22;;;;;;;-0.56;100.00;101493.19;4992521;28;20104;-81
2023/02/25 03:42:21;;;;;;;14.73;3.20;;;;;;;-0.65;100.00;101472.59;4992842;28;20041;-81
2023/02/25 03:44:53;;;;;;;7.93;3.28;;;;;;;-0.61;100.00;101489.97;4960399;28;20042;-82
2023/02/25 03:47:23;;;;;;;8.63;1.75;;;;;;;-0.78;100.00;101466.28;4975421;28;20070;-81
2023/02/25 03:50:09;;;;;;;8.05;2.80;;;;;;;-0.55;100.00;101491.44;4960297;28;20049;-81
2023/02/25 03:52:43;;;;;;;5.97;1.58;;;;;;;-0.33;100.00;101475.19;4992366;28;20033;-81
2023/02/25 03:55:12;;;;;;;4.13;2.50;;;;;;;-0.22;100.00;101481.56;4975764;28;20073;-81
2023/02/25 03:57:41;;;;;;;6.15;2.58;;;;;;;-0.16;100.00;101490.06;4992479;28;20049;-81
2023/02/25 04:00:21;;;;;;;13.45;3.17;;;;;;;-0.19;100.00;101501.66;4960419;28;20062;-81
2023/02/25 04:02:50;;;;;;;9.07;2.42;;;;;;;-0.39;100.00;101492.25;4976998;28;20113;-81
2023/02/25 04:05:30;;;;;;;9.82;2.67;;;;;;;-0.44;100.00;101483.75;4961375;28;20034;-81
2023/02/25 04:07:57;;;;;;;2.75;1.67;;;;;;;-0.22;100.00;101488.63;4976225;28;20066;-82
2023/02/25 04:10:23;;;;;;;9.93;2.65;;;;;;;0.12;100.00;101479.59;4944346;28;20037;-81
2023/02/25 04:12:52;;;;;;;10.18;2.35;;;;;;;0.20;100.00;101484.44;4960277;28;20086;-81
2023/02/25 04:15:21;;;;;;;3.53;2.00;;;;;;;0.26;100.00;101499.06;4976288;28;20034;-81
2023/02/25 04:17:46;;;;;;;7.05;2.22;;;;;;;0.29;100.00;101494.47;4980402;28;20030;-81
2023/02/25 04:20:15;;;;;;;7.60;2.80;;;;;;;0.20;100.00;101489.72;4979337;28;20042;-82
2023/02/25 04:22:41;;;;;;;7.28;2.30;;;;;;;0.09;100.00;101485.06;4964191;28;20101;-81
2023/02/25 04:25:10;;;;;;;2.47;1.58;;;;;;;0.27;100.00;101485.78;4995922;28;20034;-81
2023/02/25 04:27:38;;;;;;;2.42;1.33;;;;;;;0.51;100.00;101490.53;4979445;28;20045;-81
2023/02/25 04:30:06;;;;;;;3.67;2.53;;;;;;;0.64;100.00;101488.84;4963918;28;20041;-81
2023/02/25 04:32:34;;;;;;;24.05;3.35;;;;;;;0.91;100.00;101481.00;4994957;28;20026;-82
2023/02/25 04:35:11;;;;;;;11.10;3.33;;;;;;;1.26;100.00;101484.06;4963537;28;20026;-81
2023/02/25 04:37:40;;;;;;;6.20;1.63;;;;;;;1.41;100.00;101498.13;4964163;28;20034;-82
2023/02/25 04:40:12;;;;;;;10.98;2.03;;;;;;;1.38;100.00;101497.50;4978460;28;20034;-81
2023/02/25 04:42:38;;;;;;;9.73;3.05;;;;;;;1.39;100.00;101485.94;4963725;28;20038;-82
2023/02/25 04:45:06;;;;;;;7.10;2.20;;;;;;;1.54;100.00;101500.84;4962965;28;20054;-81
2023/02/25 04:47:41;;;;;;;8.27;3.40;;;;;;;1.54;100.00;101495.53;4947767;28;20469;-81
2023/02/25 04:50:08;;;;;;;17.20;2.58;;;;;;;1.45;100.00;101491.66;4962933;28;20069;-81
2023/02/25 04:52:34;;;;;;;12.73;2.72;;;;;;;1.39;100.00;101494.72;4979086;28;20064;-81
2023/02/25 04:55:00;;;;;;;14.18;2.83;;;;;;;1.18;100.00;101490.78;4979407;28;20591;-81
2023/02/25 04:57:26;;;;;;;7.53;2.70;;;;;;;1.05;100.00;101477.47;4994723;28;20117;-82
2023/02/25 04:59:52;;;;;;;8.57;2.65;;;;;;;1.21;100.00;101493.25;4979334;28;20503;-81
2023/02/25 05:02:22;;;;;;;8.63;2.47;;;;;;;0.90;100.00;101470.47;4979339;28;20038;-82
2023/02/25 05:04:49;;;;;;;10.13;2.45;;;;;;;0.97;100.00;101507.06;4962952;28;20148;-81
2023/02/25 05:07:18;;;;;;;7.10;2.55;;;;;;;0.87;100.00;101512.13;4995685;28;20424;-82
2023/02/25 05:09:44;;;;;;;10.48;1.95;;;;;;;0.85;100.00;101487.53;4978416;28;20026;-81
2023/02/25 05:12:09;;;;;;;11.85;3.42;;;;;;;1.06;100.00;101511.81;4994739;28;20041;-82
2023/02/25 05:14:38;;;;;;;10.20;3.17;;;;;;;1.21;100.00;101504.69;4979076;28;20109;-82
2023/02/25 05:17:14;;;;;;;12.63;2.90;;;;;;;1.19;100.00;101500.44;4945650;28;20034;-82
2023/02/25 05:19:43;;;;;;;10.80;3.60;;;;;;;1.19;100.00;101522.50;4979344;28;20073;-82
2023/02/25 05:22:13;;;;;;;5.03;1.98;;;;;;;1.16;100.00;101513.88;4995070;28;20038;-81
2023/02/25 05:24:41;;;;;;;5.28;1.77;;;;;;;1.27;100.00;101508.75;4995392;28;20041;-81
2023/02/25 05:27:09;;;;;;;9.07;2.05;;;;;;;1.54;100.00;101522.06;4994062;28;20085;-82
2023/02/25 05:29:38;;;;;;;14.57;3.20;;;;;;;1.54;100.00;101506.16;4994503;28;20080;-82
2023/02/25 05:32:06;;;;;;;6.95;1.55;;;;;;;1.59;100.00;101512.00;4961796;28;20034;-82
2023/02/25 05:34:35;;;;;;;14.32;2.60;;;;;;;1.64;100.00;101516.97;4962269;28;20030;-82
2023/02/25 05:37:03;;;;;;;9.95;3.80;;;;;;;1.62;100.00;101519.75;4976901;28;20038;-82
2023/02/25 05:39:32;;;;;;;6.57;2.75;;;;;;;1.65;100.00;101514.25;4962635;28;20065;-82
2023/02/25 05:42:00;;;;;;;12.13;4.25;;;;;;;1.62;100.00;101527.69;4961848;28;20045;-81
2023/02/25 05:44:26;;;;;;;4.10;1.73;;;;;;;1.63;100.00;101528.56;4995751;28;20507;-82
2023/02/25 05:46:54;;;;;;;7.60;2.90;;;;;;;1.68;100.00;101527.28;4993937;28;20117;-81
2023/02/25 05:49:23;;;;;;;7.13;3.20;;;;;;;1.76;100.00;101532.94;4993848;28;20396;-82
2023/02/25 05:51:58;;;;;;;7.63;2.35;;;;;;;1.78;100.00;101524.91;4994532;28;20027;-82
2023/02/25 05:54:24;;;;;;;9.82;2.60;;;;;;;1.79;100.00;101537.19;4977101;28;20039;-82
2023/02/25 05:56:53;;;;;;;6.03;2.20;;;;;;;1.74;100.00;101524.22;4978191;28;20041;-82
2023/02/25 05:59:19;;;;;;;6.03;2.75;;;;;;;1.71;100.00;101520.94;4961388;28;20046;-82
2023/02/25 06:01:45;;;;;;;8.85;3.15;;;;;;;1.74;100.00;101529.53;4994434;28;20124;-81
2023/02/25 06:04:11;;;;;;;4.32;2.47;;;;;;;1.81;100.00;101519.41;4993925;28;20125;-82
2023/02/25 06:06:37;;;;;;;6.00;2.92;;;;;;;1.96;100.00;101520.19;4994623;28;20030;-82
2023/02/25 06:09:04;;;;;;;11.38;2.85;;;;;;;1.96;100.00;101526.34;4977717;28;20482;-81
2023/02/25 06:11:30;;;;;;;12.63;3.22;;;;;;;2.00;100.00;101532.28;4993709;28;20037;-82
2023/02/25 06:13:57;;;;;;;11.93;3.72;;;;;;;2.06;100.00;101526.56;4993733;28;20114;-82
2023/02/25 06:16:30;;;;;;;8.88;2.75;;;;;;;2.14;100.00;101523.41;4977703;28;20036;-81
2023/02/25 06:19:02;;;;;;;;;;;;;;;2.14;100.00;101520.75;4978638;28;20041;-81
2023/02/25 06:21:28;;;;;;;4.10;1.48;;;;;;;2.10;100.00;101520.13;4961857;28;19959;-81
2023/02/25 06:23:55;;;;;;;5.78;2.30;;;;;;;2.01;100.00;101509.25;4960986;28;20073;-82
2023/02/25 06:26:25;;;;;;;9.15;4.05;;;;;;;2.04;100.00;101522.31;4961330;28;20045;-82
2023/02/25 06:28:51;;;;;;;13.18;4.55;;;;;;;2.04;100.00;101528.50;4961641;28;20082;-82
2023/02/25 06:31:21;;;;;;;8.43;3.85;;;;;;;2.04;100.00;101535.59;4992287;28;20042;-82
2023/02/25 06:33:53;;;;;;;13.55;3.70;;;;;;;2.01;100.00;101528.69;4978317;28;20030;-82
2023/02/25 06:36:20;;;;;;;7.20;3.10;;;;;;;2.01;100.00;101522.53;4993367;28;20046;-82
2023/02/25 06:38:47;;;;;;;12.50;4.18;;;;;;;1.98;100.00;101534.19;4993327;28;20027;-82
2023/02/25 06:41:15;;;;;;;8.18;3.60;;;;;;;2.06;100.00;101544.28;4994142;28;20042;-82
2023/02/25 06:43:43;;;;;;;21.27;4.00;;;;;;;2.03;100.00;101542.69;4944771;28;20050;-81
2023/02/25 06:46:11;;;;;;;7.72;3.70;;;;;;;1.95;100.00;101542.34;4977135;28;20038;-82
2023/02/25 06:48:37;;;;;;;8.57;2.38;;;;;;;1.74;100.00;101534.00;4993089;28;20374;-82
2023/02/25 06:51:08;;;;;;;15.93;3.10;;;;;;;1.59;100.00;101546.47;4992617;28;20037;-82
2023/02/25 06:53:37;;;;;;;9.43;3.00;;;;;;;1.48;100.00;101554.22;4961534;28;20030;-82
2023/02/25 06:56:09;;;;;;;15.60;3.30;;;;;;;1.43;100.00;101541.28;4976778;28;20050;-82
2023/02/25 06:58:38;;;;;;;15.73;3.80;;;;;;;1.42;100.00;101538.72;4993516;28;20136;-82
2023/02/25 07:01:08;;;;;;;8.32;3.80;;;;;;;1.41;100.00;101542.34;4992089;28;20041;-82
2023/02/25 07:03:34;;;;;;;8.85;3.45;;;;;;;1.43;100.00;101541.28;4993074;28;20033;-81
2023/02/25 07:06:01;;;;;;;13.07;3.20;;;;;;;1.42;100.00;101533.41;4993071;28;20038;-82
2023/02/25 07:08:27;;;;;;;8.27;2.10;;;;;;;1.39;100.00;101534.47;4976314;28;20540;-81
2023/02/25 07:10:53;;;;;;;14.38;4.18;;;;;;;1.35;100.00;101538.28;4992404;28;20022;-81
2023/02/25 07:13:22;;;;;;;13.48;3.35;;;;;;;1.28;100.00;101543.09;4976930;28;20042;-81
2023/02/25 07:15:48;;;;;;;3.50;2.38;;;;;;;1.29;100.00;101541.28;4992759;28;20037;-82
2023/02/25 07:18:17;;;;;;;12.55;3.90;;;;;;;1.29;100.00;101543.94;4992390;28;20065;-81
2023/02/25 07:20:42;;;;;;;7.05;1.80;;;;;;;1.23;100.00;101542.53;4976576;28;20042;-81
2023/02/25 07:23:09;;;;;;;14.00;3.45;;;;;;;1.27;100.00;101532.59;4960797;28;20392;-81
2023/02/25 07:25:37;;;;;;;5.28;2.17;;;;;;;1.24;100.00;101538.94;4960275;28;20034;-82
2023/02/25 07:28:06;;;;;;;12.32;3.05;;;;;;;1.32;100.00;101559.63;4960166;28;20097;-82
2023/02/25 07:30:32;;;;;;;7.57;2.83;;;;;;;1.46;100.00;101566.75;4976427;28;20037;-82
2023/02/25 07:32:58;;;;;;;9.52;2.50;;;;;;;1.47;100.00;101555.19;4960836;28;20030;-83
2023/02/25 07:35:27;;;;;;;12.43;3.78;;;;;;;1.55;100.00;101566.16;4976544;28;20037;-82
2023/02/25 07:37:55;;;;;;;10.10;3.28;;;;;;;1.51;100.00;101564.66;4977030;28;20461;-81
2023/02/25 07:40:22;;;;;;;7.18;2.65;;;;;;;1.51;100.00;101567.31;4992901;28;20034;-83
2023/02/25 07:42:47;;;;;;;9.60;3.13;;;;;;;1.51;100.00;101565.50;4976448;28;20089;-84
2023/02/25 07:45:14;;;;;;;5.15;2.65;;;;;;;1.63;100.00;101577.09;4992777;28;20034;-81
2023/02/25 07:47:40;;;;;;;8.75;2.90;;;;;;;1.47;100.00;101558.69;4960433;28;20054;-82
2023/02/25 07:50:07;;;;;;;3.22;2.08;;;;;;;1.61;100.00;101580.81;4976859;28;20046;-82
2023/02/25 07:52:36;;;;;;;7.55;3.42;;;;;;;1.68;100.00;101582.97;4965033;28;20042;-81
2023/02/25 07:55:03;;;;;;;15.75;3.25;;;;;;;1.68;100.00;101577.66;4997651;28;20452;-82
2023/02/25 07:57:31;;;;;;;14.52;2.42;;;;;;;1.72;100.00;101578.31;4997484;28;20052;-82
2023/02/25 08:00:01;;;;;;;13.45;3.22;;;;;;;1.92;100.00;101606.22;4997226;28;20034;-82
2023/02/25 08:02:26;;;;;;;7.45;2.40;;;;;;;2.00;100.00;101595.09;4964022;28;20197;-82
2023/02/25 08:04:52;;;;;;;8.10;3.90;;;;;;;2.08;100.00;101600.75;4979776;28;20550;-82
2023/02/25 08:07:19;;;;;;;11.48;3.70;;;;;;;2.11;100.00;101580.19;4979798;28;20035;-82
2023/02/25 08:09:44;;;;;;;12.50;3.00;;;;;;;2.28;100.00;101589.69;4996027;28;20108;-82
2023/02/25 08:12:13;;;;;;;8.98;2.90;;;;;;;2.46;100.00;101590.28;4996164;28;20054;-82
2023/02/25 08:14:39;;;;;;;10.88;3.00;;;;;;;2.67;100.00;101611.00;4964116;28;20120;-82
2023/02/25 08:17:08;;;;;;;12.23;3.67;;;;;;;2.59;100.00;101596.47;4996282;28;20113;-82
2023/02/25 08:19:33;;;;;;;7.00;2.63;;;;;;;2.81;100.00;101610.94;4980055;28;20030;-82
2023/02/25 08:22:03;;;;;;;8.10;2.13;;;;;;;2.92;100.00;101600.41;4995880;28;20035;-83
2023/02/25 08:24:29;;;;;;;11.20;2.92;;;;;;;2.99;100.00;101606.16;4996020;28;20129;-81
2023/02/25 08:27:00;;;;;;;4.25;2.00;;;;;;;3.27;100.00;101627.19;4995391;28;20101;-81
2023/02/25 08:29:28;;;;;;;7.95;2.40;;;;;;;3.25;100.00;101626.44;4996503;28;20390;-81
2023/02/25 08:32:01;;;;;;;8.18;2.28;;;;;;;3.25;100.00;101615.81;4980248;28;20027;-82
2023/02/25 08:34:59;;;;;;;5.30;1.90;;;;;;;3.42;100.00;101635.91;4995339;28;20038;-82
2023/02/25 08:37:35;;;;;;;3.05;2.67;;;;;;;3.64;100.00;101631.72;4952625;28;20042;-82
2023/02/25 08:40:26;;;;;;;;;;;;;;;3.94;100.00;101628.66;4978783;28;20042;-81
2023/02/25 08:42:52;;;;;;;9.95;2.72;;;;;;;3.90;100.00;101621.88;4996939;28;19914;-81
2023/02/25 08:45:26;;;;;;;16.63;4.00;;;;;;;4.50;100.00;101630.75;4995001;28;20038;-81
2023/02/25 08:47:53;;;;;;;9.60;2.70;;;;;;;4.60;100.00;101635.31;4963710;28;20037;-80
2023/02/25 08:50:21;;;;;;;16.50;3.63;;;;;;;4.63;100.00;101619.09;4979155;28;20132;-81
2023/02/25 08:52:52;;;;;;;6.00;2.67;;;;;;;4.57;100.00;101640.84;4979553;28;20042;-82
2023/02/25 08:55:18;;;;;;;14.60;5.03;;;;;;;4.49;100.00;101648.56;4979471;28;20038;-83
2023/02/25 08:57:47;;;;;;;22.30;7.45;;;;;;;4.55;100.00;101641.91;4978334;28;20429;-82
2023/02/25 09:00:14;;;;;;;12.57;4.43;;;;;;;4.38;100.00;101627.22;4979116;28;20081;-81
2023/02/25 09:02:45;;;;;;;15.48;5.53;;;;;;;4.44;100.00;101647.19;4994110;28;20546;-80
2023/02/25 09:05:11;;;;;;;10.77;4.38;;;;;;;4.28;100.00;101635.03;4995182;28;20030;-83
2023/02/25 09:07:40;;;;;;;15.82;6.45;;;;;;;4.45;100.00;101664.91;4995187;28;20030;-81
2023/02/25 09:10:12;;;;;;;12.13;5.10;;;;;;;4.49;100.00;101663.69;4995087;28;20057;-81
2023/02/25 09:12:54;;;;;;;12.85;4.43;;;;;;;4.47;100.00;101663.78;4963260;28;20069;-80
2023/02/25 09:15:40;;;;;;;14.23;6.53;;;;;;;4.34;100.00;101653.22;4968505;28;20050;-81
2023/02/25 09:18:10;;;;;;;9.35;4.07;;;;;;;4.43;100.00;101640.19;4978716;28;20035;-80
2023/02/25 09:20:41;;;;;;;11.93;6.30;;;;;;;4.75;100.00;101662.59;4964262;28;20092;-80
2023/02/25 09:23:14;;;;;;;11.65;5.35;;;;;;;5.04;100.00;101659.53;4994907;28;20405;-80
2023/02/25 09:25:42;;;;;;;9.55;4.97;;;;;;;5.28;100.00;101656.78;4978580;28;20428;-84
2023/02/25 09:28:19;;;;;;;18.00;4.85;;;;;;;4.86;100.00;101659.09;4980076;28;20030;-81
2023/02/25 09:30:45;;;;;;;16.55;8.00;;;;;;;4.65;100.00;101653.59;4961856;28;20034;-81
2023/02/25 09:33:12;;;;;;;12.20;4.07;;;;;;;4.41;100.00;101646.47;4962437;28;20452;-82
2023/02/25 09:35:41;;;;;;;10.43;3.67;;;;;;;4.36;100.00;101658.41;4946655;28;20038;-82
2023/02/25 09:38:11;;;;;;;8.68;4.82;;;;;;;4.36;100.00;101647.78;4977822;28;20030;-82
2023/02/25 09:40:40;;;;;;;12.90;5.30;;;;;;;4.62;100.00;101661.81;4995639;28;20046;-82
2023/02/25 09:43:21;;;;;;;21.30;5.78;;;;;;;5.01;100.00;101660.59;4994082;28;20033;-82
2023/02/25 09:45:49;;;;;;;12.52;6.30;;;;;;;5.28;100.00;101649.63;4977975;28;20066;-82
2023/02/25 09:48:39;;;;;;;10.95;3.95;;;;;;;5.65;100.00;101654.72;4977426;28;20023;-82
2023/02/25 09:51:25;;;;;;;14.20;5.22;;;;;;;6.01;100.00;101646.63;4977700;28;20038;-82
2023/02/25 09:54:42;;;;;;;9.60;3.28;;;;;;;6.19;100.00;101660.25;4947953;28;20065;-83
2023/02/25 09:57:18;;;;;;;13.82;6.50;;;;;;;6.76;100.00;101651.91;4978782;28;20393;-84
2023/02/25 09:59:52;;;;;;;18.13;5.38;;;;;;;7.67;100.00;101652.16;4975737;28;20034;-84
2023/02/25 10:02:28;;;;;;;10.05;3.90;;;;;;;8.57;100.00;101668.19;4962521;28;20034;-79
2023/02/25 10:05:20;;;;;;;15.30;5.90;;;;;;;11.13;98.30;101661.31;4977936;28;20062;-78
2023/02/25 10:07:55;;;;;;;11.90;5.78;;;;;;;12.59;87.79;101669.38;4967402;28;20499;-78
2023/02/25 10:10:29;;;;;;;7.50;3.78;;;;;;;13.50;82.61;101661.06;4977402;28;20125;-79
2023/02/25 10:13:20;;;;;;;8.63;3.60;;;;;;;14.03;80.65;101670.34;4994236;28;20038;-79
2023/02/25 10:15:48;;;;;;;15.00;5.43;;;;;;;14.27;77.24;101669.38;4993197;28;20077;-78
2023/02/25 10:18:32;;;;;;;11.38;5.22;;;;;;;13.30;83.10;101668.69;4993669;28;20037;-80
2023/02/25 10:21:10;;;;;;;161.57;19.27;;;;;;;14.30;76.27;101660.88;4993143;28;20034;-81
2023/02/25 10:23:46;;;;;;;7.25;3.58;;;;;;;14.77;74.04;101664.50;4977809;28;20090;-79
2023/02/25 10:26:19;;;;;;;9.35;5.10;;;;;;;15.23;73.10;101659.00;4994998;28;20022;-79
2023/02/25 10:28:56;;;;;;;12.10;4.68;;;;;;;15.55;70.28;101662.38;4961303;28;20071;-79
2023/02/25 10:31:22;;;;;;;9.75;4.20;;;;;;;15.88;69.33;101662.88;4962582;28;20047;-80
2023/02/25 10:33:50;;;;;;;7.25;5.43;;;;;;;16.11;66.28;101627.47;4976703;28;20451;-79
2023/02/25 10:36:18;;;;;;;3.88;2.88;;;;;;;16.61;65.68;101650.13;4993438;28;20026;-79
2023/02/25 10:38:47;;;;;;;6.30;3.17;;;;;;;17.16;62.53;101642.28;4977063;28;20034;-79
2023/02/25 10:41:13;;;;;;;8.43;3.30;;;;;;;17.51;58.85;101647.75;4977077;28;20034;-80
2023/02/25 10:43:39;;;;;;;7.30;3.50;;;;;;;17.72;60.13;101638.66;4960968;28;20038;-79
2023/02/25 10:46:22;;;;;;;8.32;2.97;;;;;;;17.94;57.55;101648.44;4993613;28;20038;-79
2023/02/25 10:48:59;;;;;;;11.07;3.30;;;;;;;18.34;56.80;101654.00;4977366;28;20035;-79
2023/02/25 10:51:27;;;;;;;9.55;3.92;;;;;;;18.67;53.23;101659.50;4993102;28;20034;-79
2023/02/25 10:54:00;;;;;;;11.13;4.78;;;;;;;18.74;50.64;101661.41;4977590;28;20058;-79
2023/02/25 10:56:52;;;;;;;7.85;3.33;;;;;;;18.90;49.98;101658.31;4976710;28;20075;-79
2023/02/25 10:59:35;;;;;;;13.43;4.35;;;;;;;18.88;50.31;101653.06;4989288;28;20042;-79
2023/02/25 11:02:14;;;;;;;12.65;4.40;;;;;;;19.10;47.34;101659.16;4960058;28;20030;-75
2023/02/25 11:04:39;;;;;;;10.98;4.10;;;;;;;18.92;48.61;101649.91;4977016;28;20034;-76
2023/02/25 11:07:34;;;;;;;11.82;4.18;;;;;;;18.92;45.18;101661.66;4976261;28;20492;-77
2023/02/25 11:10:18;;;;;;;7.28;3.58;;;;;;;18.52;44.58;101667.00;4976545;28;20479;-76
2023/02/25 11:12:51;;;;;;;9.88;4.15;;;;;;;18.16;46.59;101672.78;4992149;28;20408;-77
2023/02/25 11:15:35;;;;;;;;;;;;;;;18.08;47.10;101667.53;4977424;28;20030;-75
2023/02/25 11:18:15;;;;;;;8.60;3.92;;;;;;;18.20;47.35;101664.00;4976879;28;19914;-76
2023/02/25 11:20:57;;;;;;;6.00;3.05;;;;;;;18.50;44.53;101668.25;4991941;28;20030;-77
2023/02/25 11:23:33;;;;;;;8.05;3.78;;;;;;;18.30;46.04;101650.00;4961455;28;20108;-76
2023/02/25 11:26:00;;;;;;;9.65;4.05;;;;;;;18.28;44.95;101662.13;4960028;28;20121;-76
2023/02/25 11:28:37;;;;;;;16.88;6.30;;;;;;;18.28;47.49;101665.69;4992249;28;20045;-76
2023/02/25 11:31:20;;;;;;;12.35;4.30;;;;;;;18.00;48.29;101663.94;4960877;28;20040;-77
2023/02/25 11:33:49;;;;;;;;;;;;;;;17.80;47.28;101658.38;4960067;28;20026;-76
2023/02/25 11:36:22;;;;;;;4.43;2.83;;;;;;;18.41;45.56;101663.00;4977186;28;19910;-79
2023/02/25 11:38:48;;;;;;;8.95;3.97;;;;;;;18.55;44.06;101660.31;4976322;28;20461;-79
2023/02/25 11:41:17;;;;;;;7.55;3.15;;;;;;;18.51;46.70;101675.41;4992848;28;20033;-79
2023/02/25 11:43:43;;;;;;;6.63;2.70;;;;;;;17.57;44.32;101674.13;4992863;28;20481;-79